Nordkap — UFDI — position and weather

sailwx.info

Track history (hours):
 
Tides and Currents Weather Stations Pressure Air Temp Water Temp Dewpoint Dewpoint Depression Visibility Wind Speed Wind Dir Waves Ship Positions

Nordkap

Last reported at 2017-Oct-19 07:00 UTC. Time now 2017-Oct-19 07:15 UTC.
Position N 68°56' E 033°01'.

Length 20 m.

Type: Other ship. MMSI: 273322840.

Date/timePositionNaut miles runAvg speedWind from/ knotsBaromVisibWave heightAir tempDewpointWater temp
2017-Oct-19 07:00N 68°56' E 033°01'0 0.0
2017-Oct-19 06:30N 68°56' E 033°01'0 0.0
2017-Oct-19 06:00N 68°56' E 033°01'0 0.0
2017-Oct-19 05:30N 68°56' E 033°01'0 0.0
2017-Oct-19 05:00N 68°56' E 033°01'0 0.0
2017-Oct-19 04:30N 68°56' E 033°01'0 0.0
2017-Oct-19 04:00N 68°56' E 033°01'0 0.0
2017-Oct-19 03:30N 68°56' E 033°01'0 0.0
2017-Oct-19 03:00N 68°56' E 033°01'0 0.0
2017-Oct-19 02:30N 68°56' E 033°01'0 0.0
2017-Oct-19 02:00N 68°56' E 033°01'0 0.0
2017-Oct-19 01:30N 68°56' E 033°01'0 0.0
2017-Oct-19 01:00N 68°56' E 033°01'0 0.0
2017-Oct-19 00:30N 68°56' E 033°01'0 0.0
2017-Oct-19 00:00N 68°56' E 033°01'0 0.0
2017-Oct-18 23:30N 68°56' E 033°01'0 0.0
2017-Oct-18 23:00N 68°56' E 033°01'0 0.0
2017-Oct-18 22:30N 68°56' E 033°01'0 0.0
2017-Oct-18 22:00N 68°56' E 033°01'0 0.0
2017-Oct-18 21:30N 68°56' E 033°01'0 0.0
2017-Oct-18 21:00N 68°56' E 033°01'0 0.0
2017-Oct-18 20:30N 68°56' E 033°01'0 0.0
2017-Oct-18 20:00N 68°56' E 033°01'0 0.0
2017-Oct-18 19:30N 68°56' E 033°01'0 0.0
2017-Oct-18 19:00N 68°56' E 033°01'0 0.0
2017-Oct-18 18:30N 68°56' E 033°01'0 0.0
2017-Oct-18 18:00N 68°56' E 033°01'0 0.0
2017-Oct-18 17:30N 68°56' E 033°01'0 0.0
2017-Oct-18 17:00N 68°56' E 033°01'0 0.0
2017-Oct-18 16:30N 68°56' E 033°01'0 0.0
2017-Oct-18 16:00N 68°56' E 033°01'0 0.0
2017-Oct-18 15:27N 68°56' E 033°01'0 0.0
2017-Oct-18 15:00N 68°56' E 033°01'0 0.0
2017-Oct-18 14:00N 68°56' E 033°01'0 0.0
2017-Oct-18 13:30N 68°56' E 033°01'0 0.0
2017-Oct-18 13:00N 68°56' E 033°01'0 0.0
2017-Oct-18 12:30N 68°56' E 033°01'0 0.0
2017-Oct-18 12:00N 68°56' E 033°01'0 0.0
2017-Oct-18 11:30N 68°56' E 033°01'0 0.0
2017-Oct-18 11:00N 68°56' E 033°01'0 0.0
2017-Oct-18 10:30N 68°56' E 033°01'0 0.0
2017-Oct-18 10:00N 68°56' E 033°01'0 0.0
2017-Oct-18 09:30N 68°56' E 033°01'0 0.0
2017-Oct-18 09:00N 68°56' E 033°01'0 0.0
2017-Oct-18 08:30N 68°56' E 033°01'0 0.0
2017-Oct-18 08:00N 68°56' E 033°01'0 0.0
2017-Oct-18 07:27N 68°56' E 033°01'0 0.0
2017-Oct-18 07:00N 68°56' E 033°01'0 0.0
2017-Oct-18 06:30N 68°56' E 033°01'0 0.0
2017-Oct-18 06:00N 68°56' E 033°01'0 0.0
2017-Oct-18 05:30N 68°56' E 033°01'0 0.0
2017-Oct-18 05:00N 68°56' E 033°01'0 0.0
2017-Oct-18 04:30N 68°56' E 033°01'0 0.0
2017-Oct-18 04:00N 68°56' E 033°01'2 3.7
2017-Oct-18 03:29N 68°58' E 033°03'0 0.7
2017-Oct-18 03:01N 68°58' E 033°03'4 7.1
2017-Oct-18 02:30N 69°02' E 033°03'  
2017-Oct-11 22:10N 69°03' E 033°04'1 7.0
2017-Oct-11 22:00N 69°02' E 033°03'3 6.4
2017-Oct-11 21:30N 68°59' E 033°02'2 4.7
2017-Oct-11 20:59N 68°56' E 033°01'0 0.0
2017-Oct-11 20:30N 68°56' E 033°01'0 0.0
2017-Oct-11 20:00N 68°56' E 033°01'0 0.0
2017-Oct-11 19:30N 68°56' E 033°01'0 0.0
2017-Oct-11 19:00N 68°56' E 033°01'0 0.0
2017-Oct-11 18:30N 68°56' E 033°01'0 0.0
2017-Oct-11 18:00N 68°56' E 033°01'0 0.0
2017-Oct-11 17:30N 68°56' E 033°01'0 0.0
2017-Oct-11 17:00N 68°56' E 033°01'0 0.0
2017-Oct-10 23:58N 68°56' E 033°01'0 0.0
2017-Oct-10 23:30N 68°56' E 033°01'0 0.0
2017-Oct-10 22:58N 68°56' E 033°01'0 0.0
2017-Oct-10 22:30N 68°56' E 033°01'0 0.0
2017-Oct-10 21:59N 68°56' E 033°01'0 0.0
2017-Oct-10 21:28N 68°56' E 033°01'0 0.0
2017-Oct-10 21:00N 68°56' E 033°01'0 0.0
2017-Oct-10 20:28N 68°56' E 033°01'0 0.0
2017-Oct-10 20:00N 68°56' E 033°01'0 0.0
2017-Oct-10 19:30N 68°56' E 033°01'0 0.0
2017-Oct-10 19:00N 68°56' E 033°01'0 0.0
2017-Oct-10 18:30N 68°56' E 033°01'0 0.0
2017-Oct-10 18:00N 68°56' E 033°01'0 0.0
2017-Oct-10 17:30N 68°56' E 033°01'0 0.0
2017-Oct-10 17:00N 68°56' E 033°01'0 0.0
2017-Oct-10 16:29N 68°56' E 033°01'0 0.0
2017-Oct-10 16:00N 68°56' E 033°01'0 0.0
2017-Oct-10 15:30N 68°56' E 033°01'0 0.0
2017-Oct-10 15:00N 68°56' E 033°01'0 0.0
2017-Oct-10 13:59N 68°56' E 033°01'0 0.0
2017-Oct-10 13:30N 68°56' E 033°01'0 0.0
2017-Oct-10 12:59N 68°56' E 033°01'0 0.0
2017-Oct-10 12:29N 68°56' E 033°01'0 0.0
2017-Oct-10 12:00N 68°56' E 033°01'0 0.0
2017-Oct-10 11:30N 68°56' E 033°01'0 0.0
2017-Oct-10 10:59N 68°56' E 033°01'0 0.0
2017-Oct-10 10:30N 68°56' E 033°01'0 0.0
2017-Oct-10 09:59N 68°56' E 033°01'0 0.0
2017-Oct-10 09:30N 68°56' E 033°01'0 0.0
2017-Oct-10 09:00N 68°56' E 033°01'0 0.0
2017-Oct-10 08:30N 68°56' E 033°01'0 0.0
2017-Oct-10 07:58N 68°56' E 033°01'0 0.8
2017-Oct-10 07:28N 68°56' E 033°02'0 0.0
2017-Oct-10 06:59N 68°56' E 033°02'0 0.7
2017-Oct-10 06:28N 68°56' E 033°01'0 0.0
2017-Oct-10 06:00N 68°56' E 033°01'0 0.0
2017-Oct-10 05:30N 68°56' E 033°01'0 0.0
2017-Oct-10 05:00N 68°56' E 033°01'0 0.0
2017-Oct-10 04:30N 68°56' E 033°01'0 0.0
2017-Oct-10 03:57N 68°56' E 033°01'0 0.0
2017-Oct-10 03:30N 68°56' E 033°01'0 0.0
2017-Oct-10 03:00N 68°56' E 033°01'0 0.0
2017-Oct-10 02:29N 68°56' E 033°01'0 0.0
2017-Oct-10 02:00N 68°56' E 033°01'0 0.0
2017-Oct-10 01:28N 68°56' E 033°01'0 0.0
2017-Oct-10 01:00N 68°56' E 033°01'0 0.0
2017-Oct-10 00:29N 68°56' E 033°01'0 0.0
2017-Oct-09 23:59N 68°56' E 033°01'0 0.0
2017-Oct-09 23:30N 68°56' E 033°01'0 0.0
2017-Oct-09 22:58N 68°56' E 033°01'0 0.0
2017-Oct-09 22:30N 68°56' E 033°01'0 0.0
2017-Oct-09 22:00N 68°56' E 033°01'0 0.0
2017-Oct-09 21:30N 68°56' E 033°01'0 0.0
2017-Oct-09 20:58N 68°56' E 033°01'0 0.0
2017-Oct-09 20:30N 68°56' E 033°01'0 0.0
2017-Oct-09 19:59N 68°56' E 033°01'0 0.0
2017-Oct-09 19:29N 68°56' E 033°01'0 0.0
2017-Oct-09 18:58N 68°56' E 033°01'0 0.0
2017-Oct-09 18:28N 68°56' E 033°01'0 0.0
2017-Oct-09 17:58N 68°56' E 033°01'0 0.0
2017-Oct-09 17:30N 68°56' E 033°01'0 0.0
2017-Oct-09 16:59N 68°56' E 033°01'0 0.0
2017-Oct-09 16:29N 68°56' E 033°01'0 0.0
2017-Oct-09 16:00N 68°56' E 033°01'0 0.0
2017-Oct-09 15:27N 68°56' E 033°01'0 0.0
2017-Oct-09 14:59N 68°56' E 033°01'0 0.0
2017-Oct-09 14:28N 68°56' E 033°01'0 0.0
2017-Oct-09 13:59N 68°56' E 033°01'0 0.0
2017-Oct-09 13:30N 68°56' E 033°01'0 0.0
2017-Oct-09 12:58N 68°56' E 033°01'0 0.0
2017-Oct-09 12:28N 68°56' E 033°01'0 0.0
2017-Oct-09 11:58N 68°56' E 033°01'0 0.0
2017-Oct-09 11:28N 68°56' E 033°01'0 0.0
2017-Oct-09 10:58N 68°56' E 033°01'0 0.0
2017-Oct-09 10:28N 68°56' E 033°01'0 0.0
2017-Oct-09 09:58N 68°56' E 033°01'0 0.0
2017-Oct-09 09:30N 68°56' E 033°01'0 0.0
2017-Oct-09 08:58N 68°56' E 033°01'0 0.0
2017-Oct-09 08:30N 68°56' E 033°01'0 0.0
2017-Oct-09 08:00N 68°56' E 033°01'0 0.0
2017-Oct-09 07:28N 68°56' E 033°01'0 0.0
2017-Oct-09 07:00N 68°56' E 033°01'  
Track history (hours):
 
Tides and Currents Weather Stations Pressure Air Temp Water Temp Dewpoint Dewpoint Depression Visibility Wind Speed Wind Dir Waves Ship Positions

Nordkap

Last reported at 2017-Oct-19 07:00 UTC. Time now 2017-Oct-19 07:15 UTC.
Position N 68°56' E 033°01'.

Length 20 m.

Type: Other ship. MMSI: 273322840.

Date/timePositionNaut miles runAvg speedWind from/ knotsBaromVisibWave heightAir tempDewpointWater temp
2017-Oct-19 07:00N 68°56' E 033°01'0 0.0
2017-Oct-19 06:30N 68°56' E 033°01'0 0.0
2017-Oct-19 06:00N 68°56' E 033°01'0 0.0
2017-Oct-19 05:30N 68°56' E 033°01'0 0.0
2017-Oct-19 05:00N 68°56' E 033°01'0 0.0
2017-Oct-19 04:30N 68°56' E 033°01'0 0.0
2017-Oct-19 04:00N 68°56' E 033°01'0 0.0
2017-Oct-19 03:30N 68°56' E 033°01'0 0.0
2017-Oct-19 03:00N 68°56' E 033°01'0 0.0
2017-Oct-19 02:30N 68°56' E 033°01'0 0.0
2017-Oct-19 02:00N 68°56' E 033°01'0 0.0
2017-Oct-19 01:30N 68°56' E 033°01'0 0.0
2017-Oct-19 01:00N 68°56' E 033°01'0 0.0
2017-Oct-19 00:30N 68°56' E 033°01'0 0.0
2017-Oct-19 00:00N 68°56' E 033°01'0 0.0
2017-Oct-18 23:30N 68°56' E 033°01'0 0.0
2017-Oct-18 23:00N 68°56' E 033°01'0 0.0
2017-Oct-18 22:30N 68°56' E 033°01'0 0.0
2017-Oct-18 22:00N 68°56' E 033°01'0 0.0
2017-Oct-18 21:30N 68°56' E 033°01'0 0.0
2017-Oct-18 21:00N 68°56' E 033°01'0 0.0
2017-Oct-18 20:30N 68°56' E 033°01'0 0.0
2017-Oct-18 20:00N 68°56' E 033°01'0 0.0
2017-Oct-18 19:30N 68°56' E 033°01'0 0.0
2017-Oct-18 19:00N 68°56' E 033°01'0 0.0
2017-Oct-18 18:30N 68°56' E 033°01'0 0.0
2017-Oct-18 18:00N 68°56' E 033°01'0 0.0
2017-Oct-18 17:30N 68°56' E 033°01'0 0.0
2017-Oct-18 17:00N 68°56' E 033°01'0 0.0
2017-Oct-18 16:30N 68°56' E 033°01'0 0.0
2017-Oct-18 16:00N 68°56' E 033°01'0 0.0
2017-Oct-18 15:27N 68°56' E 033°01'0 0.0
2017-Oct-18 15:00N 68°56' E 033°01'0 0.0
2017-Oct-18 14:00N 68°56' E 033°01'0 0.0
2017-Oct-18 13:30N 68°56' E 033°01'0 0.0
2017-Oct-18 13:00N 68°56' E 033°01'0 0.0
2017-Oct-18 12:30N 68°56' E 033°01'0 0.0
2017-Oct-18 12:00N 68°56' E 033°01'0 0.0
2017-Oct-18 11:30N 68°56' E 033°01'0 0.0
2017-Oct-18 11:00N 68°56' E 033°01'0 0.0
2017-Oct-18 10:30N 68°56' E 033°01'0 0.0
2017-Oct-18 10:00N 68°56' E 033°01'0 0.0
2017-Oct-18 09:30N 68°56' E 033°01'0 0.0
2017-Oct-18 09:00N 68°56' E 033°01'0 0.0
2017-Oct-18 08:30N 68°56' E 033°01'0 0.0
2017-Oct-18 08:00N 68°56' E 033°01'0 0.0
2017-Oct-18 07:27N 68°56' E 033°01'0 0.0
2017-Oct-18 07:00N 68°56' E 033°01'0 0.0
2017-Oct-18 06:30N 68°56' E 033°01'0 0.0
2017-Oct-18 06:00N 68°56' E 033°01'0 0.0
2017-Oct-18 05:30N 68°56' E 033°01'0 0.0
2017-Oct-18 05:00N 68°56' E 033°01'0 0.0
2017-Oct-18 04:30N 68°56' E 033°01'0 0.0
2017-Oct-18 04:00N 68°56' E 033°01'2 3.7
2017-Oct-18 03:29N 68°58' E 033°03'0 0.7
2017-Oct-18 03:01N 68°58' E 033°03'4 7.1
2017-Oct-18 02:30N 69°02' E 033°03'  
2017-Oct-11 22:10N 69°03' E 033°04'1 7.0
2017-Oct-11 22:00N 69°02' E 033°03'3 6.4
2017-Oct-11 21:30N 68°59' E 033°02'2 4.7
2017-Oct-11 20:59N 68°56' E 033°01'0 0.0
2017-Oct-11 20:30N 68°56' E 033°01'0 0.0
2017-Oct-11 20:00N 68°56' E 033°01'0 0.0
2017-Oct-11 19:30N 68°56' E 033°01'0 0.0
2017-Oct-11 19:00N 68°56' E 033°01'0 0.0
2017-Oct-11 18:30N 68°56' E 033°01'0 0.0
2017-Oct-11 18:00N 68°56' E 033°01'0 0.0
2017-Oct-11 17:30N 68°56' E 033°01'0 0.0
2017-Oct-11 17:00N 68°56' E 033°01'0 0.0
2017-Oct-10 23:58N 68°56' E 033°01'0 0.0
2017-Oct-10 23:30N 68°56' E 033°01'0 0.0
2017-Oct-10 22:58N 68°56' E 033°01'0 0.0
2017-Oct-10 22:30N 68°56' E 033°01'0 0.0
2017-Oct-10 21:59N 68°56' E 033°01'0 0.0
2017-Oct-10 21:28N 68°56' E 033°01'0 0.0
2017-Oct-10 21:00N 68°56' E 033°01'0 0.0
2017-Oct-10 20:28N 68°56' E 033°01'0 0.0
2017-Oct-10 20:00N 68°56' E 033°01'0 0.0
2017-Oct-10 19:30N 68°56' E 033°01'0 0.0
2017-Oct-10 19:00N 68°56' E 033°01'0 0.0
2017-Oct-10 18:30N 68°56' E 033°01'0 0.0
2017-Oct-10 18:00N 68°56' E 033°01'0 0.0
2017-Oct-10 17:30N 68°56' E 033°01'0 0.0
2017-Oct-10 17:00N 68°56' E 033°01'0 0.0
2017-Oct-10 16:29N 68°56' E 033°01'0 0.0
2017-Oct-10 16:00N 68°56' E 033°01'0 0.0
2017-Oct-10 15:30N 68°56' E 033°01'0 0.0
2017-Oct-10 15:00N 68°56' E 033°01'0 0.0
2017-Oct-10 13:59N 68°56' E 033°01'0 0.0
2017-Oct-10 13:30N 68°56' E 033°01'0 0.0
2017-Oct-10 12:59N 68°56' E 033°01'0 0.0
2017-Oct-10 12:29N 68°56' E 033°01'0 0.0
2017-Oct-10 12:00N 68°56' E 033°01'0 0.0
2017-Oct-10 11:30N 68°56' E 033°01'0 0.0
2017-Oct-10 10:59N 68°56' E 033°01'0 0.0
2017-Oct-10 10:30N 68°56' E 033°01'0 0.0
2017-Oct-10 09:59N 68°56' E 033°01'0 0.0
2017-Oct-10 09:30N 68°56' E 033°01'0 0.0
2017-Oct-10 09:00N 68°56' E 033°01'0 0.0
2017-Oct-10 08:30N 68°56' E 033°01'0 0.0
2017-Oct-10 07:58N 68°56' E 033°01'0 0.8
2017-Oct-10 07:28N 68°56' E 033°02'0 0.0
2017-Oct-10 06:59N 68°56' E 033°02'0 0.7
2017-Oct-10 06:28N 68°56' E 033°01'0 0.0
2017-Oct-10 06:00N 68°56' E 033°01'0 0.0
2017-Oct-10 05:30N 68°56' E 033°01'0 0.0
2017-Oct-10 05:00N 68°56' E 033°01'0 0.0
2017-Oct-10 04:30N 68°56' E 033°01'0 0.0
2017-Oct-10 03:57N 68°56' E 033°01'0 0.0
2017-Oct-10 03:30N 68°56' E 033°01'0 0.0
2017-Oct-10 03:00N 68°56' E 033°01'0 0.0
2017-Oct-10 02:29N 68°56' E 033°01'0 0.0
2017-Oct-10 02:00N 68°56' E 033°01'0 0.0
2017-Oct-10 01:28N 68°56' E 033°01'0 0.0
2017-Oct-10 01:00N 68°56' E 033°01'0 0.0
2017-Oct-10 00:29N 68°56' E 033°01'0 0.0
2017-Oct-09 23:59N 68°56' E 033°01'0 0.0
2017-Oct-09 23:30N 68°56' E 033°01'0 0.0
2017-Oct-09 22:58N 68°56' E 033°01'0 0.0
2017-Oct-09 22:30N 68°56' E 033°01'0 0.0
2017-Oct-09 22:00N 68°56' E 033°01'0 0.0
2017-Oct-09 21:30N 68°56' E 033°01'0 0.0
2017-Oct-09 20:58N 68°56' E 033°01'0 0.0
2017-Oct-09 20:30N 68°56' E 033°01'0 0.0
2017-Oct-09 19:59N 68°56' E 033°01'0 0.0
2017-Oct-09 19:29N 68°56' E 033°01'0 0.0
2017-Oct-09 18:58N 68°56' E 033°01'0 0.0
2017-Oct-09 18:28N 68°56' E 033°01'0 0.0
2017-Oct-09 17:58N 68°56' E 033°01'0 0.0
2017-Oct-09 17:30N 68°56' E 033°01'0 0.0
2017-Oct-09 16:59N 68°56' E 033°01'0 0.0
2017-Oct-09 16:29N 68°56' E 033°01'0 0.0
2017-Oct-09 16:00N 68°56' E 033°01'0 0.0
2017-Oct-09 15:27N 68°56' E 033°01'0 0.0
2017-Oct-09 14:59N 68°56' E 033°01'0 0.0
2017-Oct-09 14:28N 68°56' E 033°01'0 0.0
2017-Oct-09 13:59N 68°56' E 033°01'0 0.0
2017-Oct-09 13:30N 68°56' E 033°01'0 0.0
2017-Oct-09 12:58N 68°56' E 033°01'0 0.0
2017-Oct-09 12:28N 68°56' E 033°01'0 0.0
2017-Oct-09 11:58N 68°56' E 033°01'0 0.0
2017-Oct-09 11:28N 68°56' E 033°01'0 0.0
2017-Oct-09 10:58N 68°56' E 033°01'0 0.0
2017-Oct-09 10:28N 68°56' E 033°01'0 0.0
2017-Oct-09 09:58N 68°56' E 033°01'0 0.0
2017-Oct-09 09:30N 68°56' E 033°01'0 0.0
2017-Oct-09 08:58N 68°56' E 033°01'0 0.0
2017-Oct-09 08:30N 68°56' E 033°01'0 0.0
2017-Oct-09 08:00N 68°56' E 033°01'0 0.0
2017-Oct-09 07:28N 68°56' E 033°01'0 0.0
2017-Oct-09 07:00N 68°56' E 033°01'  

Dump ship's entire track history